Main page
Satellite images 10-day forecastsClimateMarine weather Cyclones Lightning AirportsFAQ Newsletter About
Weather : Europe Africa North America South America Asia Australia-Oceania Others
Languages Contact

Çorlu, Turkey

Tekirdağ Çorlu Airport

latitude: 41-08N, longitude: 027-55E, elevation: 173 m


METAR: LTBU 032250Z 34009KT CAVOK 22/21 Q1011
TAF: LTBU 031640Z 0318/0418 03008KT CAVOK TEMPO 0402/0406 2000 BR SCT010

Time: 02:23 (23:23 UTC)

Current weather observation

The report was made 33 minutes ago, at 22:50 UTC
Wind 9 kt from the North/Northwest
Temperature 22°C
Humidity 94%
Pressure 1011 hPa
Visibility 10 km or more
no clouds below 1500 m and no cumulonimbus

Change units

Forecast

The report was made 6 hours and 43 minutes ago, at 16:40 UTC
Forecast valid from 03 at 18 UTC to 04 at 18 UTC
Wind 8 kt from the North/Northeast
Visibility 10 km or more
no clouds below 1500 m and no cumulonimbus
Temporary
from 04 at 02 UTC to 04 at 06 UTC
Visibility: 2000 m
Scattered clouds at a height of 1000 ft
mist
The information on this site is subject to a disclaimer
Weather : Europe Africa North America South America Asia Australia-Oceania Others
Satellite images 10-day forecastsClimateMarine weather Cyclones Lightning AirportsFAQ Languages Contact Newsletter About